• Join FlightAware (Why Join?)
  • Login
  • US Flag 
10:50AM EDT


 

Airport Tracker/Info


-or-


 

Live Flight TrackerFlight Track Log ✈ UAL5900 ✈ 21-Apr-2013 ✈ KORD - KBNA

Flight Track Log - Related Links

Times and Time Zones

All times are in EDT time to prevent confusion due to time zone crossing. See the UAL5900 flight status page for this flight to view local times or setup timezone preferences in your user account.

Time Position Orientation Groundspeed Altitude Reporting Facility
EDT Latitude Longitude Course Direction KTS MPH feet Rate Location/Type
05:53PM 41.9000 -87.9167 176° South 188 216 3,300  Level Chicago TRACON
05:55PM 41.8128 -87.9047 174° South 227 261 6,000 2,100 Climbing Chicago Center
05:56PM 41.7217 -87.8933 175° South 270 311 9,000 2,580 Climbing Chicago Center
05:57PM 41.6447 -87.8906 178° South 275 316 11,400 2,220 Climbing Chicago Center
05:58PM 41.4989 -87.7972 176° South  Level Estimated
05:58PM 41.5686 -87.8856 177° South 278 320 13,600  Level Chicago Center
05:59PM 41.4869 -87.8817 178° South 285 328 15,500 1,440 Climbing Chicago Center
06:00PM 41.4000 -87.8786 178° South 306 352 16,600 960 Climbing Chicago Center
06:01PM 41.3064 -87.8883 184° South 332 382 17,600 600 Climbing Chicago Center
06:02PM 41.2053 -87.8922 182° South 356 410 17,900 600 Climbing Chicago Center
06:03PM 41.1017 -87.8878 178° South 371 427 18,900 1,020 Climbing Chicago Center
06:04PM 40.9742 -87.8839 179° South 380 437 20,100 960 Climbing Chicago Center
06:05PM 40.8656 -87.8833 180° South 389 448 21,000 480 Climbing Chicago Center
06:06PM 40.7517 -87.8794 179° South 403 464 21,200 480 Climbing Chicago Center
06:07PM 40.6367 -87.8742 178° South 414 476 22,100 900 Climbing Chicago Center
06:08PM 40.5228 -87.8717 179° South 412 474 23,100 960 Climbing Chicago Center
06:09PM 40.3872 -87.8669 178° South 409 471 24,200 960 Climbing Chicago Center
06:10PM 40.2747 -87.8625 178° South 407 468 25,200 900 Climbing Chicago Center
06:11PM 40.1656 -87.8572 178° South 407 468 26,100 900 Climbing Chicago Center
06:12PM 40.0419 -87.8450 176° South 406 467 27,200 960 Climbing Indianapolis Center
06:14PM 39.8000 -87.7853 169° South 402 463 29,300 960 Climbing Indianapolis Center
06:15PM 39.6919 -87.7589 169° South 398 458 30,300 780 Climbing Indianapolis Center
06:16PM 39.5811 -87.7336 170° South 399 459 31,000 300 Climbing Indianapolis Center
06:17PM 39.4636 -87.7092 171° South 419 482 31,000  Level Indianapolis Center
06:18PM 39.3408 -87.6828 171° South 440 506 31,000  Level Indianapolis Center
06:19PM 39.2181 -87.6567 171° South 445 512 31,000  Level Indianapolis Center
06:21PM 39.0758 -87.6247 170° South 431 496 31,000  Level Indianapolis Center
06:22PM 38.9583 -87.5992 170° South 426 490 31,000  Level Indianapolis Center
06:23PM 38.8419 -87.5736 170° South 423 487 31,000  Level Indianapolis Center
06:24PM 38.7247 -87.5481 170° South 426 490 31,000  Level Indianapolis Center
06:25PM 38.6086 -87.5222 170° South 424 488 31,000  Level Indianapolis Center
06:26PM 38.4933 -87.4972 170° South 422 486 31,000  Level Indianapolis Center
06:27PM 38.3544 -87.4678 171° South 423 487 31,000  Level Indianapolis Center
06:28PM 38.2394 -87.4433 171° South 423 487 31,000  Level Indianapolis Center
06:29PM 38.1236 -87.4183 170° South 426 490 31,000  Level Indianapolis Center
06:30PM 38.0064 -87.3942 171° South 428 493 31,000  Level Indianapolis Center
06:31PM 37.8892 -87.3667 170° South 429 494 31,000 -720 Level Indianapolis Center
06:32PM 37.7544 -87.3411 171° South 428 493 29,600 -1,680 Descending Indianapolis Center
06:33PM 37.6372 -87.3161 170° South 423 487 27,600 -1,920 Descending Indianapolis Center
06:34PM 37.5192 -87.2925 171° South 425 489 25,600 -2,100 Descending Indianapolis Center
06:34PM 37.4708 -87.2789 167° South 430 495 24,800 -1,980 Descending Memphis Center
06:35PM 37.3492 -87.2522 170° South 437 503 23,100 -900 Descending Memphis Center
06:36PM 37.2317 -87.2203 168° South 444 511 23,000 -60 Descending Memphis Center
06:37PM 37.1331 -87.1931 168° South 426 490 23,000 -240 Level Memphis Center
06:38PM 37.0197 -87.1586 166° South 433 498 22,600 -1,320 Descending Memphis Center
06:39PM 36.8814 -87.1200 167° South 433 498 20,200 -1,980 Descending Memphis Center
06:40PM 36.7822 -87.0775 161° South 400 460 18,300 -1,860 Descending Memphis Center
06:41PM 36.6975 -87.0264 154° Southeast 353 406 16,500 -1,680 Descending Memphis Center
06:42PM 36.6083 -86.9708 153° Southeast 348 400 15,000 -1,380 Descending Memphis Center
06:43PM 36.5322 -86.9247 154° Southeast 342 394 13,800 -1,380 Descending Memphis Center
06:44PM 36.4514 -86.8742 153° Southeast 337 388 12,300 -1,560 Descending Memphis Center
06:45PM 36.3772 -86.8283 154° Southeast 314 361 10,700 -1,800 Descending Memphis Center
06:46PM 36.2989 -86.7828 155° Southeast 292 336 8,800 -1,800 Descending Memphis Center
06:47PM 36.2292 -86.7525 161° South 272 313 7,100 -1,680 Descending Memphis Center
06:48PM 36.1631 -86.7783 198° South 250 288 5,500 -1,200 Descending Memphis Center
06:49PM 36.1033 -86.7992 196° South 237 273 4,700 -900 Descending Memphis Center
06:50PM 36.0539 -86.8217 200° South 223 257 3,700 -900 Descending Memphis Center
06:51PM 36.0153 -86.7850 142° Southeast 186 214 2,900 -720 Descending Memphis Center
06:52PM 36.0364 -86.7225 67° East 162 186 2,300 -720 Descending Memphis Center
06:53PM 36.0797 -86.7025 20° North 146 168 1,500 -840 Descending Memphis Center
06:54PM 36.1147 -86.6881 18° North 139 160 700 -480 Descending Memphis Center
06:55PM 36.1536 -86.6683 22° Northeast 139 160 600 -120 Descending Memphis Center
06:57PM 36.1167 -86.6667 180° South  Level FlightAware Approximate
07:04PM 36.1245 -86.6782 180° South  Level Estimated
07:05PM 36.1245 -86.6782 180° South  Level Estimated
07:06PM 36.1245 -86.6782 180° South  Level Estimated
07:07PM 36.1245 -86.6782 180° South  Level Estimated
07:08PM 36.1245 -86.6782 180° South  Level Estimated
07:09PM 36.1245 -86.6782 180° South  Level Estimated
07:10PM 36.1245 -86.6782 180° South  Level Estimated